createdAt,value
2023-10-06T00:09:29.941Z,64.18
2023-10-06T00:24:32.744Z,64.49
2023-10-06T00:39:34.441Z,65.33
2023-10-06T00:54:36.220Z,65.60
2023-10-06T01:09:37.883Z,65.10
2023-10-06T01:24:39.608Z,65.28
2023-10-06T01:39:41.694Z,66.03
2023-10-06T01:54:46.452Z,65.19
2023-10-06T02:09:49.666Z,65.71
2023-10-06T02:24:51.338Z,64.86
2023-10-06T02:39:54.473Z,64.81
2023-10-06T02:55:05.436Z,65.04
2023-10-06T03:10:11.376Z,65.01
2023-10-06T03:25:18.263Z,64.44
2023-10-06T03:40:47.549Z,70.15
2023-10-06T03:55:49.251Z,63.09
2023-10-06T04:11:01.401Z,62.64
2023-10-06T04:26:03.158Z,62.41
2023-10-06T04:41:08.500Z,63.33
2023-10-06T04:56:10.353Z,64.20
2023-10-06T05:11:12.748Z,63.76
2023-10-06T05:26:16.480Z,63.74
2023-10-06T05:41:18.905Z,63.12
2023-10-06T05:56:21.429Z,62.56
2023-10-06T06:11:23.211Z,61.96
2023-10-06T06:26:26.027Z,62.15
2023-10-06T06:41:28.708Z,61.35
2023-10-06T06:56:31.409Z,60.74
2023-10-06T07:11:35.549Z,59.94
2023-10-06T07:26:38.211Z,56.96
2023-10-06T07:41:39.941Z,55.36
2023-10-06T07:56:43.537Z,54.93
2023-10-06T08:11:46.568Z,53.29
2023-10-06T08:26:50.115Z,53.22
2023-10-06T08:41:55.884Z,51.93
2023-10-06T08:56:57.605Z,52.09
2023-10-06T09:11:59.905Z,51.52
2023-10-06T09:27:19.223Z,51.60
2023-10-06T09:42:21.354Z,50.31
2023-10-06T09:57:23.419Z,50.32
2023-10-06T10:12:49.391Z,49.74
2023-10-06T10:28:18.433Z,49.20
2023-10-06T10:43:22.103Z,48.27
2023-10-06T10:58:45.482Z,46.45
2023-10-06T11:14:06.759Z,45.08
2023-10-06T11:29:08.724Z,43.22
2023-10-06T11:44:10.596Z,41.89
2023-10-06T11:59:20.582Z,41.51
2023-10-06T12:14:22.398Z,41.22
2023-10-06T12:29:24.174Z,41.05
2023-10-06T12:44:28.498Z,42.96
2023-10-06T12:59:33.847Z,45.01
2023-10-06T13:14:36.270Z,52.15
2023-10-06T13:29:41.835Z,45.06
2023-10-06T13:44:44.506Z,43.00
2023-10-06T13:59:47.942Z,41.09
2023-10-06T14:14:49.604Z,47.96
2023-10-06T14:29:52.429Z,42.67
2023-10-06T14:45:12.867Z,42.36
2023-10-06T15:00:15.471Z,47.89
2023-10-06T15:15:17.301Z,40.57
2023-10-06T15:30:19.044Z,46.47
2023-10-06T15:45:20.685Z,45.34
2023-10-06T16:00:24.184Z,46.70
2023-10-06T16:15:29.470Z,49.41
2023-10-06T16:30:31.219Z,49.21
2023-10-06T16:45:36.186Z,47.64
2023-10-06T17:00:39.105Z,48.02
2023-10-06T17:15:41.550Z,48.65
2023-10-06T17:30:43.212Z,46.03
2023-10-06T17:45:46.009Z,47.91
2023-10-06T18:00:48.808Z,49.26
2023-10-06T18:15:53.818Z,50.52
2023-10-06T18:30:56.791Z,50.96
2023-10-06T18:46:00.671Z,51.39
2023-10-06T19:01:05.155Z,52.25
2023-10-06T19:16:15.418Z,52.70
2023-10-06T19:31:18.001Z,53.14
2023-10-06T19:46:20.214Z,53.59
2023-10-06T20:01:25.312Z,54.34
2023-10-06T20:16:27.659Z,54.99
2023-10-06T20:31:30.519Z,55.92
2023-10-06T20:46:32.504Z,55.99
2023-10-06T21:01:34.405Z,56.22
2023-10-06T21:16:37.597Z,57.07
2023-10-06T21:31:40.158Z,56.74
2023-10-06T21:46:42.229Z,57.96
2023-10-06T22:01:44.216Z,58.07
2023-10-06T22:16:49.623Z,58.16
2023-10-06T22:31:51.718Z,58.53
2023-10-06T22:46:53.770Z,59.55
2023-10-06T23:01:55.652Z,59.07
2023-10-06T23:17:02.249Z,59.54
2023-10-06T23:32:04.934Z,60.12
2023-10-06T23:47:13.524Z,60.22
